createdAt,value
2023-03-06T00:02:53.900Z,4.41
2023-03-06T00:05:57.551Z,4.26
2023-03-06T00:08:59.713Z,4.26
2023-03-06T00:12:01.151Z,4.28
2023-03-06T00:15:05.483Z,4.34
2023-03-06T00:18:07.244Z,4.37
2023-03-06T00:21:08.918Z,4.42
2023-03-06T00:24:10.323Z,4.38
2023-03-06T00:27:11.840Z,4.18
2023-03-06T00:30:15.959Z,4.06
2023-03-06T00:33:17.341Z,4.09
2023-03-06T00:36:18.859Z,4.25
2023-03-06T00:39:20.486Z,4.15
2023-03-06T00:42:22.079Z,4.21
2023-03-06T00:45:23.632Z,4.27
2023-03-06T00:48:25.072Z,4.39
2023-03-06T00:51:26.847Z,4.42
2023-03-06T00:54:28.312Z,4.47
2023-03-06T00:57:29.872Z,4.52
2023-03-06T01:00:32.093Z,4.41
2023-03-06T01:03:33.841Z,4.41
2023-03-06T01:06:35.650Z,4.15
2023-03-06T01:09:38.085Z,4.00
2023-03-06T01:12:39.596Z,4.05
2023-03-06T01:15:41.197Z,4.15
2023-03-06T01:18:42.817Z,4.03
2023-03-06T01:21:44.614Z,4.01
2023-03-06T01:24:46.068Z,4.02
2023-03-06T01:27:48.689Z,3.98
2023-03-06T01:30:51.112Z,3.87
2023-03-06T01:33:53.097Z,3.96
2023-03-06T01:36:54.538Z,4.13
2023-03-06T01:39:56.305Z,4.00
2023-03-06T01:42:57.760Z,3.96
2023-03-06T01:46:41.890Z,3.88
2023-03-06T01:49:43.528Z,3.99
2023-03-06T01:52:52.702Z,4.10
2023-03-06T01:55:55.053Z,4.08
2023-03-06T01:58:58.092Z,3.91
2023-03-06T02:02:01.939Z,3.87
2023-03-06T02:05:05.025Z,3.91
2023-03-06T02:08:07.602Z,4.02
2023-03-06T02:11:14.171Z,3.98
2023-03-06T02:14:17.188Z,3.89
2023-03-06T02:17:21.636Z,3.97
2023-03-06T02:20:32.338Z,3.84
2023-03-06T02:23:47.878Z,3.91
2023-03-06T02:26:50.164Z,4.06
2023-03-06T02:29:51.651Z,3.96
2023-03-06T02:32:53.279Z,4.01
2023-03-06T02:35:59.080Z,3.94
2023-03-06T02:39:01.625Z,3.80
2023-03-06T02:42:03.034Z,3.98
2023-03-06T02:45:11.022Z,4.05
2023-03-06T02:48:14.559Z,4.00
2023-03-06T02:51:16.061Z,4.05
2023-03-06T02:54:18.418Z,4.04
2023-03-06T02:57:20.319Z,3.97
2023-03-06T03:00:22.145Z,4.01
2023-03-06T03:03:23.874Z,3.96
2023-03-06T03:06:27.564Z,3.86
2023-03-06T03:09:29.345Z,3.58
2023-03-06T03:12:32.120Z,3.70
2023-03-06T03:15:34.330Z,3.81
2023-03-06T03:18:36.146Z,3.69
2023-03-06T03:21:38.886Z,3.66
2023-03-06T03:24:40.532Z,3.54
2023-03-06T03:27:41.963Z,3.62
2023-03-06T03:30:44.421Z,3.76
2023-03-06T03:33:47.209Z,3.65
2023-03-06T03:36:49.189Z,3.51
2023-03-06T03:39:51.341Z,3.23
2023-03-06T03:42:52.907Z,3.20
2023-03-06T03:45:55.485Z,3.38
2023-03-06T03:48:58.487Z,3.65
2023-03-06T03:52:01.075Z,3.62
2023-03-06T03:55:06.347Z,3.68
2023-03-06T03:58:07.852Z,3.74
2023-03-06T04:01:09.427Z,3.66
2023-03-06T04:04:11.808Z,3.72
2023-03-06T04:07:14.502Z,3.73
2023-03-06T04:10:16.647Z,3.52
2023-03-06T04:13:20.902Z,3.68
2023-03-06T04:16:23.230Z,3.68
2023-03-06T04:19:25.855Z,3.66
2023-03-06T04:22:28.151Z,3.70
2023-03-06T04:25:29.996Z,3.60
2023-03-06T04:28:33.041Z,3.60
2023-03-06T04:31:34.725Z,3.61
2023-03-06T04:34:36.448Z,3.49
2023-03-06T04:37:37.899Z,3.57
2023-03-06T04:40:40.237Z,3.63
2023-03-06T04:43:41.843Z,3.70
2023-03-06T04:46:43.276Z,3.66
2023-03-06T04:49:44.664Z,3.71
2023-03-06T04:52:46.306Z,3.65
2023-03-06T04:55:47.766Z,3.69
2023-03-06T04:58:49.302Z,3.58
2023-03-06T05:01:51.103Z,3.60
2023-03-06T05:04:52.525Z,3.54
2023-03-06T05:07:54.346Z,3.51
2023-03-06T05:10:58.269Z,3.55
2023-03-06T05:14:00.458Z,3.44
2023-03-06T05:17:01.871Z,3.55
2023-03-06T05:20:06.165Z,3.31
2023-03-06T05:23:07.601Z,3.49
2023-03-06T05:26:11.275Z,3.50
2023-03-06T05:29:12.840Z,3.57
2023-03-06T05:32:16.800Z,3.61
2023-03-06T05:35:21.141Z,3.63
2023-03-06T05:38:23.096Z,3.77
2023-03-06T05:41:24.536Z,3.54
2023-03-06T05:44:31.166Z,3.24
2023-03-06T05:47:32.953Z,3.29
2023-03-06T05:50:34.555Z,3.43
2023-03-06T05:53:35.975Z,3.51
2023-03-06T05:56:37.383Z,3.58
2023-03-06T05:59:38.757Z,3.46
2023-03-06T06:02:41.165Z,3.49
2023-03-06T06:05:42.528Z,3.61
2023-03-06T06:08:44.195Z,3.68
2023-03-06T06:11:45.616Z,3.52
2023-03-06T06:14:47.188Z,3.50
2023-03-06T06:17:48.627Z,3.55
2023-03-06T06:20:50.058Z,3.63
2023-03-06T06:23:51.531Z,3.64
2023-03-06T06:26:54.789Z,3.49
2023-03-06T06:29:56.215Z,3.56
2023-03-06T06:32:57.828Z,3.51
2023-03-06T06:35:59.274Z,3.69
2023-03-06T06:39:00.751Z,3.73
2023-03-06T06:42:26.555Z,3.59
2023-03-06T06:45:25.569Z,3.66
2023-03-06T06:48:26.963Z,3.74
2023-03-06T06:51:32.544Z,3.61
2023-03-06T06:54:34.715Z,3.48
2023-03-06T06:57:36.173Z,3.55
2023-03-06T07:00:37.647Z,3.48
2023-03-06T07:03:40.402Z,3.43
2023-03-06T07:06:42.746Z,3.47
2023-03-06T07:09:44.269Z,3.59
2023-03-06T07:12:45.686Z,3.63
2023-03-06T07:15:47.344Z,3.74
2023-03-06T07:18:48.912Z,3.84
2023-03-06T07:21:50.962Z,3.80
2023-03-06T07:24:52.393Z,3.87
2023-03-06T07:27:54.766Z,3.91
2023-03-06T07:30:56.169Z,4.15
2023-03-06T07:33:57.663Z,4.07
2023-03-06T07:36:59.079Z,3.98
2023-03-06T07:40:00.461Z,3.89
2023-03-06T07:43:18.400Z,3.89
2023-03-06T07:46:24.402Z,3.82
2023-03-06T07:49:25.797Z,4.05
2023-03-06T07:52:27.225Z,3.95
2023-03-06T07:55:28.677Z,4.04
2023-03-06T07:58:30.084Z,4.12
2023-03-06T08:01:31.770Z,4.09
2023-03-06T08:04:34.305Z,3.93
2023-03-06T08:07:35.609Z,3.90
2023-03-06T08:10:37.367Z,3.90
2023-03-06T08:13:39.944Z,4.33
2023-03-06T08:16:41.475Z,4.56
2023-03-06T08:19:42.926Z,4.51
2023-03-06T08:22:45.503Z,4.55
2023-03-06T08:25:55.743Z,4.56
2023-03-06T08:28:59.549Z,4.17
2023-03-06T08:32:01.116Z,4.26
2023-03-06T08:35:06.593Z,4.54
2023-03-06T08:38:08.001Z,4.62
2023-03-06T08:41:09.713Z,4.50
2023-03-06T08:44:11.611Z,4.59
2023-03-06T08:47:13.119Z,4.85
2023-03-06T08:50:14.725Z,4.51
2023-03-06T08:53:16.198Z,4.70
2023-03-06T08:56:23.223Z,4.48
2023-03-06T08:59:25.016Z,4.44
2023-03-06T09:02:26.526Z,4.61
2023-03-06T09:05:28.257Z,4.50
2023-03-06T09:08:29.866Z,4.71
2023-03-06T09:11:31.950Z,4.73
2023-03-06T09:14:33.415Z,4.56
2023-03-06T09:17:34.943Z,4.69
2023-03-06T09:20:36.450Z,4.84
2023-03-06T09:23:39.458Z,4.66
2023-03-06T09:26:45.980Z,4.71
2023-03-06T09:29:48.569Z,4.70
2023-03-06T09:32:50.002Z,4.89
2023-03-06T09:35:56.643Z,5.02
2023-03-06T09:38:58.079Z,5.01
2023-03-06T09:41:59.674Z,4.84
2023-03-06T09:45:02.760Z,5.01
2023-03-06T09:48:13.302Z,4.87
2023-03-06T09:51:18.692Z,4.95
2023-03-06T09:54:43.449Z,4.50
2023-03-06T09:57:51.160Z,4.77
2023-03-06T10:00:54.302Z,4.71
2023-03-06T10:04:04.923Z,4.84
2023-03-06T10:07:43.163Z,5.01
2023-03-06T10:10:50.850Z,4.63
2023-03-06T10:14:00.986Z,5.17
2023-03-06T10:17:03.721Z,5.15
2023-03-06T10:20:22.240Z,5.20
2023-03-06T10:23:54.473Z,5.40
2023-03-06T10:27:23.470Z,5.61
2023-03-06T10:30:39.707Z,5.57
2023-03-06T10:33:51.606Z,5.32
2023-03-06T10:36:53.072Z,5.55
2023-03-06T10:40:08.584Z,5.59
2023-03-06T10:43:12.400Z,4.87
2023-03-06T10:46:27.395Z,4.87
2023-03-06T10:49:37.351Z,5.20
2023-03-06T10:52:38.797Z,5.42
2023-03-06T10:55:40.368Z,5.72
2023-03-06T10:58:41.810Z,6.00
2023-03-06T11:01:49.455Z,6.17
2023-03-06T11:04:54.880Z,5.90
2023-03-06T11:08:01.766Z,5.37
2023-03-06T11:11:03.321Z,5.59
2023-03-06T11:14:15.276Z,5.85
2023-03-06T11:17:32.037Z,5.81
2023-03-06T11:20:52.013Z,6.06
2023-03-06T11:23:57.576Z,5.82
2023-03-06T11:27:05.766Z,6.29
2023-03-06T11:30:19.039Z,6.18
2023-03-06T11:33:31.729Z,6.56
2023-03-06T11:36:59.130Z,6.54
2023-03-06T11:40:43.381Z,6.53
2023-03-06T11:44:00.743Z,6.08
2023-03-06T11:47:15.295Z,6.32
2023-03-06T11:50:31.519Z,6.48
2023-03-06T11:53:39.344Z,6.22
2023-03-06T11:56:49.726Z,6.07
2023-03-06T12:00:16.991Z,5.69
2023-03-06T12:03:45.705Z,5.72
2023-03-06T12:07:07.648Z,5.92
2023-03-06T12:10:29.929Z,6.26
2023-03-06T12:13:57.133Z,5.84
2023-03-06T12:17:30.500Z,5.79
2023-03-06T12:20:42.501Z,6.40
2023-03-06T12:23:50.098Z,6.48
2023-03-06T12:27:17.930Z,6.48
2023-03-06T12:31:02.316Z,6.48
2023-03-06T12:34:15.556Z,6.43
2023-03-06T12:37:35.541Z,6.48
2023-03-06T12:41:04.426Z,6.84
2023-03-06T12:44:16.929Z,6.47
2023-03-06T12:47:20.946Z,6.47
2023-03-06T12:50:28.726Z,6.31
2023-03-06T12:53:32.014Z,6.05
2023-03-06T12:56:35.294Z,6.02
2023-03-06T12:59:48.002Z,6.11
2023-03-06T13:03:15.060Z,5.63
2023-03-06T13:06:34.227Z,5.99
2023-03-06T13:10:08.554Z,6.08
2023-03-06T13:13:42.689Z,5.84
2023-03-06T13:16:44.306Z,5.62
2023-03-06T13:19:46.235Z,5.86
2023-03-06T13:22:47.944Z,5.52
2023-03-06T13:25:50.521Z,4.94
2023-03-06T13:28:57.809Z,5.33
2023-03-06T13:32:02.400Z,5.51
2023-03-06T13:35:47.390Z,5.48
2023-03-06T13:38:48.751Z,5.52
2023-03-06T13:42:00.766Z,5.32
2023-03-06T13:45:25.731Z,5.62
2023-03-06T13:48:44.631Z,5.64
2023-03-06T13:52:06.188Z,5.53
2023-03-06T13:55:29.583Z,5.53
2023-03-06T13:58:49.072Z,5.60
2023-03-06T14:02:12.504Z,5.19
2023-03-06T14:05:15.685Z,5.39
2023-03-06T14:08:37.453Z,5.54
2023-03-06T14:11:45.775Z,5.48
2023-03-06T14:14:57.660Z,5.76
2023-03-06T14:18:01.014Z,5.43
2023-03-06T14:21:13.161Z,5.46
2023-03-06T14:24:20.068Z,5.29
2023-03-06T14:27:38.453Z,5.36
2023-03-06T14:30:49.821Z,5.57
2023-03-06T14:33:56.802Z,5.54
2023-03-06T14:37:01.648Z,5.36
2023-03-06T14:40:10.842Z,5.74
2023-03-06T14:43:22.723Z,5.69
2023-03-06T14:46:24.174Z,5.72
2023-03-06T14:49:26.858Z,5.83
2023-03-06T14:52:28.572Z,5.66
2023-03-06T14:55:32.172Z,5.85
2023-03-06T14:58:40.898Z,5.67
2023-03-06T15:01:46.177Z,5.80
2023-03-06T15:04:53.169Z,5.88
2023-03-06T15:08:00.140Z,5.83
2023-03-06T15:11:05.333Z,5.53
2023-03-06T15:14:18.418Z,5.69
2023-03-06T15:17:19.856Z,5.69
2023-03-06T15:20:41.935Z,5.90
2023-03-06T15:23:45.658Z,5.93
2023-03-06T15:26:54.504Z,6.09
2023-03-06T15:29:59.638Z,6.01
2023-03-06T15:33:19.533Z,6.07
2023-03-06T15:36:29.484Z,6.11
2023-03-06T15:39:39.887Z,5.93
2023-03-06T15:42:42.440Z,5.54
2023-03-06T15:45:43.840Z,5.72
2023-03-06T15:48:53.514Z,5.88
2023-03-06T15:51:54.972Z,5.91
2023-03-06T15:54:56.385Z,5.79
2023-03-06T15:58:00.900Z,5.92
2023-03-06T16:01:03.645Z,5.89
2023-03-06T16:04:05.243Z,5.81
2023-03-06T16:07:06.668Z,5.82
2023-03-06T16:10:17.223Z,5.89
2023-03-06T16:13:26.923Z,5.75
2023-03-06T16:16:37.736Z,5.45
2023-03-06T16:19:39.865Z,5.63
2023-03-06T16:22:41.346Z,5.69
2023-03-06T16:25:48.477Z,5.77
2023-03-06T16:28:50.055Z,5.69
2023-03-06T16:31:51.953Z,5.68
2023-03-06T16:34:53.341Z,5.70
2023-03-06T16:37:54.760Z,5.64
2023-03-06T16:40:56.184Z,5.64
2023-03-06T16:43:57.631Z,5.59
2023-03-06T16:47:00.792Z,5.33
2023-03-06T16:50:03.343Z,5.43
2023-03-06T16:53:05.366Z,5.47
2023-03-06T16:56:09.372Z,5.45
2023-03-06T16:59:12.176Z,5.05
2023-03-06T17:02:13.642Z,5.08
2023-03-06T17:05:15.099Z,4.91
2023-03-06T17:08:16.546Z,4.97
2023-03-06T17:11:20.202Z,5.10
2023-03-06T17:14:21.773Z,5.07
2023-03-06T17:17:23.189Z,5.10
2023-03-06T17:20:24.843Z,4.78
2023-03-06T17:23:29.588Z,5.06
2023-03-06T17:26:31.290Z,5.16
2023-03-06T17:29:32.865Z,5.10
2023-03-06T17:32:34.401Z,5.11
2023-03-06T17:35:36.699Z,4.93
2023-03-06T17:38:38.238Z,4.89
2023-03-06T17:41:39.726Z,4.91
2023-03-06T17:44:41.444Z,4.91
2023-03-06T17:47:43.017Z,4.88
2023-03-06T17:50:52.727Z,4.67
2023-03-06T17:53:55.509Z,4.68
2023-03-06T17:57:03.234Z,4.49
2023-03-06T18:00:05.821Z,4.51
2023-03-06T18:03:13.545Z,4.57
2023-03-06T18:06:16.064Z,4.66
2023-03-06T18:09:17.578Z,4.57
2023-03-06T18:12:19.062Z,4.39
2023-03-06T18:15:20.497Z,4.30
2023-03-06T18:18:22.022Z,4.37
2023-03-06T18:21:24.030Z,4.45
2023-03-06T18:24:25.570Z,4.52
2023-03-06T18:27:27.119Z,4.51
2023-03-06T18:30:28.727Z,4.56
2023-03-06T18:33:30.150Z,4.54
2023-03-06T18:36:33.627Z,4.58
2023-03-06T18:39:35.173Z,4.63
2023-03-06T18:42:36.743Z,4.74
2023-03-06T18:45:38.200Z,4.39
2023-03-06T18:48:39.861Z,4.60
2023-03-06T18:51:42.636Z,4.64
2023-03-06T18:54:44.873Z,4.71
2023-03-06T18:57:46.311Z,4.61
2023-03-06T19:00:48.462Z,4.60
2023-03-06T19:03:50.121Z,4.61
2023-03-06T19:06:51.742Z,4.53
2023-03-06T19:09:53.165Z,4.63
2023-03-06T19:12:54.584Z,4.64
2023-03-06T19:15:57.066Z,4.67
2023-03-06T19:18:59.125Z,4.49
2023-03-06T19:22:00.535Z,4.29
2023-03-06T19:25:03.838Z,4.39
2023-03-06T19:28:05.847Z,4.18
2023-03-06T19:31:09.276Z,4.42
2023-03-06T19:34:10.776Z,4.37
2023-03-06T19:37:12.238Z,4.44
2023-03-06T19:40:13.858Z,4.41
2023-03-06T19:43:15.306Z,4.37
2023-03-06T19:46:16.965Z,4.55
2023-03-06T19:49:21.632Z,4.45
2023-03-06T19:52:24.583Z,4.48
2023-03-06T19:55:28.469Z,4.43
2023-03-06T19:58:29.949Z,4.45
2023-03-06T20:01:31.382Z,4.46
2023-03-06T20:04:34.080Z,4.08
2023-03-06T20:07:35.528Z,4.25
2023-03-06T20:10:37.055Z,4.39
2023-03-06T20:13:44.604Z,4.54
2023-03-06T20:16:48.615Z,4.43
2023-03-06T20:19:50.042Z,4.35
2023-03-06T20:22:51.484Z,4.38
2023-03-06T20:25:52.916Z,4.57
2023-03-06T20:28:54.788Z,4.49
2023-03-06T20:31:57.707Z,4.49
2023-03-06T20:34:59.268Z,4.44
2023-03-06T20:38:00.680Z,4.52
2023-03-06T20:41:03.004Z,4.42
2023-03-06T20:44:06.141Z,4.38
2023-03-06T20:47:08.845Z,4.35
2023-03-06T20:50:10.949Z,4.28
2023-03-06T20:53:12.361Z,4.31
2023-03-06T20:56:16.149Z,4.20
2023-03-06T20:59:18.142Z,4.36
2023-03-06T21:02:19.674Z,4.18
2023-03-06T21:05:21.121Z,4.31
2023-03-06T21:08:23.128Z,4.29
2023-03-06T21:11:25.424Z,4.29
2023-03-06T21:14:26.842Z,4.44
2023-03-06T21:17:30.070Z,4.37
2023-03-06T21:20:32.328Z,4.35
2023-03-06T21:23:33.870Z,4.35
2023-03-06T21:26:35.482Z,4.19
2023-03-06T21:29:36.899Z,4.28
2023-03-06T21:32:38.348Z,4.19
2023-03-06T21:35:41.479Z,4.22
2023-03-06T21:38:42.924Z,4.29
2023-03-06T21:41:44.380Z,4.23
2023-03-06T21:44:45.920Z,4.31
2023-03-06T21:47:50.501Z,4.32
2023-03-06T21:50:52.075Z,4.35
2023-03-06T21:53:54.904Z,4.35
2023-03-06T21:56:56.855Z,4.31
2023-03-06T21:59:58.235Z,4.28
2023-03-06T22:02:59.746Z,4.33
2023-03-06T22:06:28.103Z,4.33
2023-03-06T22:09:29.773Z,4.39
2023-03-06T22:12:34.072Z,4.29
2023-03-06T22:15:35.548Z,4.40
2023-03-06T22:18:38.659Z,4.46
2023-03-06T22:21:40.129Z,4.38
2023-03-06T22:24:41.652Z,3.99
2023-03-06T22:27:43.145Z,4.14
2023-03-06T22:30:45.745Z,4.17
2023-03-06T22:33:51.278Z,4.08
2023-03-06T22:36:52.921Z,4.14
2023-03-06T22:39:54.577Z,4.27
2023-03-06T22:42:56.103Z,4.32
2023-03-06T22:46:02.159Z,4.32
2023-03-06T22:49:03.677Z,4.31
2023-03-06T22:52:05.312Z,4.21
2023-03-06T22:55:07.040Z,4.31
2023-03-06T22:58:08.465Z,4.36
2023-03-06T23:01:25.143Z,4.26
2023-03-06T23:04:26.729Z,4.03
2023-03-06T23:07:28.296Z,4.10
2023-03-06T23:10:39.399Z,4.09
2023-03-06T23:13:59.362Z,4.27
2023-03-06T23:17:19.524Z,4.13
2023-03-06T23:20:43.515Z,4.00
2023-03-06T23:24:04.422Z,3.99
2023-03-06T23:27:05.854Z,4.03
2023-03-06T23:30:09.298Z,4.10
2023-03-06T23:33:10.978Z,3.96
2023-03-06T23:36:14.508Z,4.07
2023-03-06T23:39:16.695Z,4.13
2023-03-06T23:42:19.111Z,4.12
2023-03-06T23:45:20.578Z,4.13
2023-03-06T23:48:22.432Z,4.10
2023-03-06T23:51:23.996Z,3.99
2023-03-06T23:54:25.440Z,3.94
2023-03-06T23:57:26.846Z,3.90
